sensor_id;sensor_type;location;lat;lon;timestamp;temperature;humidity
24226;DHT22;51462;51.422;5.514;2024-02-16T00:01:02;11.50;99.90
24226;DHT22;51462;51.422;5.514;2024-02-16T00:03:28;11.50;99.90
24226;DHT22;51462;51.422;5.514;2024-02-16T00:05:54;11.40;99.90
24226;DHT22;51462;51.422;5.514;2024-02-16T00:08:20;11.40;99.90
24226;DHT22;51462;51.422;5.514;2024-02-16T00:10:46;11.40;99.90
24226;DHT22;51462;51.422;5.514;2024-02-16T00:13:12;11.30;99.90
24226;DHT22;51462;51.422;5.514;2024-02-16T00:15:38;11.30;99.90
24226;DHT22;51462;51.422;5.514;2024-02-16T00:18:05;11.20;99.90
24226;DHT22;51462;51.422;5.514;2024-02-16T00:20:30;11.20;99.90
24226;DHT22;51462;51.422;5.514;2024-02-16T00:22:57;11.20;99.90
24226;DHT22;51462;51.422;5.514;2024-02-16T00:25:22;11.10;99.90
24226;DHT22;51462;51.422;5.514;2024-02-16T00:27:48;11.20;99.90
24226;DHT22;51462;51.422;5.514;2024-02-16T00:30:14;11.10;99.90
24226;DHT22;51462;51.422;5.514;2024-02-16T00:32:43;11.20;99.90
24226;DHT22;51462;51.422;5.514;2024-02-16T00:35:14;11.20;99.90
24226;DHT22;51462;51.422;5.514;2024-02-16T00:37:42;11.20;99.90
24226;DHT22;51462;51.422;5.514;2024-02-16T00:40:08;11.10;99.90
24226;DHT22;51462;51.422;5.514;2024-02-16T00:42:34;11.00;99.90
24226;DHT22;51462;51.422;5.514;2024-02-16T00:44:59;11.00;99.90
24226;DHT22;51462;51.422;5.514;2024-02-16T00:47:29;11.00;99.90
24226;DHT22;51462;51.422;5.514;2024-02-16T00:49:54;11.00;99.90
24226;DHT22;51462;51.422;5.514;2024-02-16T00:52:21;11.00;99.90
24226;DHT22;51462;51.422;5.514;2024-02-16T00:54:48;10.90;99.90
24226;DHT22;51462;51.422;5.514;2024-02-16T00:57:13;10.90;99.90
24226;DHT22;51462;51.422;5.514;2024-02-16T00:59:40;10.90;99.90
24226;DHT22;51462;51.422;5.514;2024-02-16T01:02:06;10.90;99.90
24226;DHT22;51462;51.422;5.514;2024-02-16T01:04:32;10.90;99.90
24226;DHT22;51462;51.422;5.514;2024-02-16T01:06:58;10.70;99.90
24226;DHT22;51462;51.422;5.514;2024-02-16T01:09:23;10.70;99.90
24226;DHT22;51462;51.422;5.514;2024-02-16T01:11:49;10.70;99.90
24226;DHT22;51462;51.422;5.514;2024-02-16T01:14:14;10.70;99.90
24226;DHT22;51462;51.422;5.514;2024-02-16T01:16:40;10.70;99.90
24226;DHT22;51462;51.422;5.514;2024-02-16T01:19:06;10.60;99.90
24226;DHT22;51462;51.422;5.514;2024-02-16T01:21:33;10.70;99.90
24226;DHT22;51462;51.422;5.514;2024-02-16T01:23:58;10.60;99.90
24226;DHT22;51462;51.422;5.514;2024-02-16T01:26:26;10.60;99.90
24226;DHT22;51462;51.422;5.514;2024-02-16T01:28:52;10.50;99.90
24226;DHT22;51462;51.422;5.514;2024-02-16T01:31:18;10.50;99.90
24226;DHT22;51462;51.422;5.514;2024-02-16T01:33:43;10.40;99.90
24226;DHT22;51462;51.422;5.514;2024-02-16T01:36:09;10.50;99.90
24226;DHT22;51462;51.422;5.514;2024-02-16T01:38:34;10.50;99.90
24226;DHT22;51462;51.422;5.514;2024-02-16T01:41:00;10.40;99.90
24226;DHT22;51462;51.422;5.514;2024-02-16T01:43:27;10.50;99.90
24226;DHT22;51462;51.422;5.514;2024-02-16T01:45:53;10.50;99.90
24226;DHT22;51462;51.422;5.514;2024-02-16T01:48:19;10.50;99.90
24226;DHT22;51462;51.422;5.514;2024-02-16T01:50:45;10.60;99.90
24226;DHT22;51462;51.422;5.514;2024-02-16T01:53:12;10.50;99.90
24226;DHT22;51462;51.422;5.514;2024-02-16T01:55:40;10.50;99.90
24226;DHT22;51462;51.422;5.514;2024-02-16T01:58:05;10.40;99.90
24226;DHT22;51462;51.422;5.514;2024-02-16T02:00:32;10.60;99.90
24226;DHT22;51462;51.422;5.514;2024-02-16T02:02:58;10.60;99.90
24226;DHT22;51462;51.422;5.514;2024-02-16T02:05:23;10.50;99.90
24226;DHT22;51462;51.422;5.514;2024-02-16T02:07:49;10.60;99.90
24226;DHT22;51462;51.422;5.514;2024-02-16T02:10:15;10.40;99.90
24226;DHT22;51462;51.422;5.514;2024-02-16T02:12:41;10.40;99.90
24226;DHT22;51462;51.422;5.514;2024-02-16T02:15:08;10.40;99.90
24226;DHT22;51462;51.422;5.514;2024-02-16T02:17:34;10.50;99.90
24226;DHT22;51462;51.422;5.514;2024-02-16T02:20:00;10.50;99.90
24226;DHT22;51462;51.422;5.514;2024-02-16T02:22:26;10.50;99.90
24226;DHT22;51462;51.422;5.514;2024-02-16T02:24:52;10.40;99.90
24226;DHT22;51462;51.422;5.514;2024-02-16T02:27:21;10.40;99.90
24226;DHT22;51462;51.422;5.514;2024-02-16T02:29:47;10.40;99.90
24226;DHT22;51462;51.422;5.514;2024-02-16T02:32:12;10.40;99.90
24226;DHT22;51462;51.422;5.514;2024-02-16T02:34:38;10.40;99.90
24226;DHT22;51462;51.422;5.514;2024-02-16T02:37:05;10.40;99.90
24226;DHT22;51462;51.422;5.514;2024-02-16T02:39:31;10.40;99.90
24226;DHT22;51462;51.422;5.514;2024-02-16T02:41:56;10.40;99.90
24226;DHT22;51462;51.422;5.514;2024-02-16T02:44:23;10.40;99.90
24226;DHT22;51462;51.422;5.514;2024-02-16T02:46:49;10.50;99.90
24226;DHT22;51462;51.422;5.514;2024-02-16T02:49:14;10.60;99.90
24226;DHT22;51462;51.422;5.514;2024-02-16T02:51:40;10.60;99.90
24226;DHT22;51462;51.422;5.514;2024-02-16T02:54:06;10.70;99.90
24226;DHT22;51462;51.422;5.514;2024-02-16T02:56:31;10.70;99.90
24226;DHT22;51462;51.422;5.514;2024-02-16T02:58:57;10.80;99.90
24226;DHT22;51462;51.422;5.514;2024-02-16T03:01:23;10.80;99.90
24226;DHT22;51462;51.422;5.514;2024-02-16T03:03:48;10.80;99.90
24226;DHT22;51462;51.422;5.514;2024-02-16T03:06:18;10.80;99.90
24226;DHT22;51462;51.422;5.514;2024-02-16T03:08:43;10.90;99.90
24226;DHT22;51462;51.422;5.514;2024-02-16T03:11:09;10.90;99.90
24226;DHT22;51462;51.422;5.514;2024-02-16T03:13:34;10.90;99.90
24226;DHT22;51462;51.422;5.514;2024-02-16T03:16:00;11.00;99.90
24226;DHT22;51462;51.422;5.514;2024-02-16T03:18:29;10.90;99.90
24226;DHT22;51462;51.422;5.514;2024-02-16T03:20:55;10.90;99.90
24226;DHT22;51462;51.422;5.514;2024-02-16T03:23:21;10.90;99.90
24226;DHT22;51462;51.422;5.514;2024-02-16T03:25:47;10.90;99.90
24226;DHT22;51462;51.422;5.514;2024-02-16T03:28:12;10.90;99.90
24226;DHT22;51462;51.422;5.514;2024-02-16T03:30:38;10.90;99.90
24226;DHT22;51462;51.422;5.514;2024-02-16T03:33:04;10.90;99.90
24226;DHT22;51462;51.422;5.514;2024-02-16T03:35:30;11.00;99.90
24226;DHT22;51462;51.422;5.514;2024-02-16T03:37:56;11.10;99.90
24226;DHT22;51462;51.422;5.514;2024-02-16T03:40:23;11.00;99.90
24226;DHT22;51462;51.422;5.514;2024-02-16T03:42:50;11.10;99.90
24226;DHT22;51462;51.422;5.514;2024-02-16T03:45:16;11.00;99.90
24226;DHT22;51462;51.422;5.514;2024-02-16T03:47:41;11.00;99.90
24226;DHT22;51462;51.422;5.514;2024-02-16T03:50:07;11.00;99.90
24226;DHT22;51462;51.422;5.514;2024-02-16T03:52:33;11.10;99.90
24226;DHT22;51462;51.422;5.514;2024-02-16T03:54:59;11.00;99.90
24226;DHT22;51462;51.422;5.514;2024-02-16T03:57:25;11.10;99.90
24226;DHT22;51462;51.422;5.514;2024-02-16T03:59:51;11.20;99.90
24226;DHT22;51462;51.422;5.514;2024-02-16T04:02:16;11.20;99.90
24226;DHT22;51462;51.422;5.514;2024-02-16T04:04:42;11.20;99.90
24226;DHT22;51462;51.422;5.514;2024-02-16T04:07:08;11.20;99.90
24226;DHT22;51462;51.422;5.514;2024-02-16T04:09:34;11.30;99.90
24226;DHT22;51462;51.422;5.514;2024-02-16T04:12:00;11.30;99.90
24226;DHT22;51462;51.422;5.514;2024-02-16T04:14:26;11.40;99.90
24226;DHT22;51462;51.422;5.514;2024-02-16T04:16:52;11.20;99.90
24226;DHT22;51462;51.422;5.514;2024-02-16T04:19:18;11.30;99.90
24226;DHT22;51462;51.422;5.514;2024-02-16T04:21:43;11.30;99.90
24226;DHT22;51462;51.422;5.514;2024-02-16T04:24:09;11.30;99.90
24226;DHT22;51462;51.422;5.514;2024-02-16T04:26:34;11.40;99.90
24226;DHT22;51462;51.422;5.514;2024-02-16T04:29:00;11.50;99.90
24226;DHT22;51462;51.422;5.514;2024-02-16T04:31:25;11.40;99.90
24226;DHT22;51462;51.422;5.514;2024-02-16T04:33:51;11.30;99.90
24226;DHT22;51462;51.422;5.514;2024-02-16T04:36:18;11.40;99.90
24226;DHT22;51462;51.422;5.514;2024-02-16T04:38:44;11.40;99.90
24226;DHT22;51462;51.422;5.514;2024-02-16T04:41:09;11.50;99.90
24226;DHT22;51462;51.422;5.514;2024-02-16T04:43:35;11.50;99.90
24226;DHT22;51462;51.422;5.514;2024-02-16T04:46:00;11.50;99.90
24226;DHT22;51462;51.422;5.514;2024-02-16T04:48:26;11.40;99.90
24226;DHT22;51462;51.422;5.514;2024-02-16T04:50:52;11.50;99.90
24226;DHT22;51462;51.422;5.514;2024-02-16T04:53:17;11.50;99.90
24226;DHT22;51462;51.422;5.514;2024-02-16T04:55:43;11.50;99.90
24226;DHT22;51462;51.422;5.514;2024-02-16T04:58:09;11.50;99.90
24226;DHT22;51462;51.422;5.514;2024-02-16T05:00:38;11.50;99.90
24226;DHT22;51462;51.422;5.514;2024-02-16T05:03:04;11.60;99.90
24226;DHT22;51462;51.422;5.514;2024-02-16T05:05:29;11.60;99.90
24226;DHT22;51462;51.422;5.514;2024-02-16T05:07:56;11.60;99.90
24226;DHT22;51462;51.422;5.514;2024-02-16T05:10:22;11.70;99.90
24226;DHT22;51462;51.422;5.514;2024-02-16T05:12:48;11.70;99.90
24226;DHT22;51462;51.422;5.514;2024-02-16T05:15:13;11.60;99.90
24226;DHT22;51462;51.422;5.514;2024-02-16T05:17:40;11.70;99.90
24226;DHT22;51462;51.422;5.514;2024-02-16T05:20:12;11.70;99.90
24226;DHT22;51462;51.422;5.514;2024-02-16T05:22:44;11.80;99.90
24226;DHT22;51462;51.422;5.514;2024-02-16T05:25:11;11.70;99.90
24226;DHT22;51462;51.422;5.514;2024-02-16T05:27:37;11.80;99.90
24226;DHT22;51462;51.422;5.514;2024-02-16T05:30:04;11.80;99.90
24226;DHT22;51462;51.422;5.514;2024-02-16T05:32:36;11.80;99.90
24226;DHT22;51462;51.422;5.514;2024-02-16T05:35:06;11.80;99.90
24226;DHT22;51462;51.422;5.514;2024-02-16T05:37:47;11.80;99.90
24226;DHT22;51462;51.422;5.514;2024-02-16T05:40:20;11.90;99.90
24226;DHT22;51462;51.422;5.514;2024-02-16T05:42:55;12.00;99.90
24226;DHT22;51462;51.422;5.514;2024-02-16T05:45:23;12.10;99.90
24226;DHT22;51462;51.422;5.514;2024-02-16T05:47:50;12.00;99.90
24226;DHT22;51462;51.422;5.514;2024-02-16T05:50:15;11.90;99.90
24226;DHT22;51462;51.422;5.514;2024-02-16T05:52:42;11.90;99.90
24226;DHT22;51462;51.422;5.514;2024-02-16T05:55:08;11.90;99.90
24226;DHT22;51462;51.422;5.514;2024-02-16T05:57:35;12.00;99.90
24226;DHT22;51462;51.422;5.514;2024-02-16T06:00:04;12.00;99.90
24226;DHT22;51462;51.422;5.514;2024-02-16T06:02:34;12.00;99.90
24226;DHT22;51462;51.422;5.514;2024-02-16T06:05:00;12.10;99.90
24226;DHT22;51462;51.422;5.514;2024-02-16T06:07:26;12.00;99.90
24226;DHT22;51462;51.422;5.514;2024-02-16T06:09:52;12.00;99.90
24226;DHT22;51462;51.422;5.514;2024-02-16T06:12:19;12.10;99.90
24226;DHT22;51462;51.422;5.514;2024-02-16T06:14:45;12.00;99.90
24226;DHT22;51462;51.422;5.514;2024-02-16T06:17:11;12.30;99.90
24226;DHT22;51462;51.422;5.514;2024-02-16T06:19:42;12.30;99.90
24226;DHT22;51462;51.422;5.514;2024-02-16T06:22:08;12.20;99.90
24226;DHT22;51462;51.422;5.514;2024-02-16T06:24:34;12.20;99.90
24226;DHT22;51462;51.422;5.514;2024-02-16T06:27:00;12.20;99.90
24226;DHT22;51462;51.422;5.514;2024-02-16T06:29:25;12.20;99.90
24226;DHT22;51462;51.422;5.514;2024-02-16T06:31:51;12.20;99.90
24226;DHT22;51462;51.422;5.514;2024-02-16T06:34:18;12.20;99.90
24226;DHT22;51462;51.422;5.514;2024-02-16T06:36:44;12.20;99.90
24226;DHT22;51462;51.422;5.514;2024-02-16T06:39:11;12.20;99.90
24226;DHT22;51462;51.422;5.514;2024-02-16T06:41:37;12.20;99.90
24226;DHT22;51462;51.422;5.514;2024-02-16T06:44:04;12.30;99.90
24226;DHT22;51462;51.422;5.514;2024-02-16T06:46:29;12.30;99.90
24226;DHT22;51462;51.422;5.514;2024-02-16T06:48:55;12.30;99.90
24226;DHT22;51462;51.422;5.514;2024-02-16T06:51:25;12.30;99.90
24226;DHT22;51462;51.422;5.514;2024-02-16T06:53:52;12.30;99.90
24226;DHT22;51462;51.422;5.514;2024-02-16T06:56:18;12.30;99.90
24226;DHT22;51462;51.422;5.514;2024-02-16T06:58:46;12.30;99.90
24226;DHT22;51462;51.422;5.514;2024-02-16T07:01:16;12.40;99.90
24226;DHT22;51462;51.422;5.514;2024-02-16T07:03:43;12.40;99.90
24226;DHT22;51462;51.422;5.514;2024-02-16T07:06:09;12.30;99.90
24226;DHT22;51462;51.422;5.514;2024-02-16T07:08:43;12.30;99.90
24226;DHT22;51462;51.422;5.514;2024-02-16T07:11:09;12.40;99.90
24226;DHT22;51462;51.422;5.514;2024-02-16T07:13:41;12.30;99.90
24226;DHT22;51462;51.422;5.514;2024-02-16T07:16:10;12.30;99.90
24226;DHT22;51462;51.422;5.514;2024-02-16T07:18:35;12.30;99.90
24226;DHT22;51462;51.422;5.514;2024-02-16T07:21:02;12.40;99.90
24226;DHT22;51462;51.422;5.514;2024-02-16T07:23:28;12.30;99.90
24226;DHT22;51462;51.422;5.514;2024-02-16T07:25:55;12.30;99.90
24226;DHT22;51462;51.422;5.514;2024-02-16T07:28:22;12.40;99.90
24226;DHT22;51462;51.422;5.514;2024-02-16T07:30:49;12.40;99.90
24226;DHT22;51462;51.422;5.514;2024-02-16T07:33:14;12.30;99.90
24226;DHT22;51462;51.422;5.514;2024-02-16T07:35:40;12.40;99.90
24226;DHT22;51462;51.422;5.514;2024-02-16T07:38:06;12.30;99.90
24226;DHT22;51462;51.422;5.514;2024-02-16T07:40:32;12.40;99.90
24226;DHT22;51462;51.422;5.514;2024-02-16T07:42:57;12.40;99.90
24226;DHT22;51462;51.422;5.514;2024-02-16T07:45:23;12.40;99.90
24226;DHT22;51462;51.422;5.514;2024-02-16T07:47:49;12.40;99.90
24226;DHT22;51462;51.422;5.514;2024-02-16T07:50:19;12.40;99.90
24226;DHT22;51462;51.422;5.514;2024-02-16T07:52:45;12.40;99.90
24226;DHT22;51462;51.422;5.514;2024-02-16T07:55:11;12.50;99.90
24226;DHT22;51462;51.422;5.514;2024-02-16T07:57:36;12.40;99.90
24226;DHT22;51462;51.422;5.514;2024-02-16T08:00:03;12.40;99.90
24226;DHT22;51462;51.422;5.514;2024-02-16T08:02:29;12.40;99.90
24226;DHT22;51462;51.422;5.514;2024-02-16T08:04:54;12.40;99.90
24226;DHT22;51462;51.422;5.514;2024-02-16T08:07:21;12.50;99.90
24226;DHT22;51462;51.422;5.514;2024-02-16T08:09:47;12.50;99.90
24226;DHT22;51462;51.422;5.514;2024-02-16T08:12:13;12.40;99.90
24226;DHT22;51462;51.422;5.514;2024-02-16T08:14:39;12.50;99.90
24226;DHT22;51462;51.422;5.514;2024-02-16T08:17:06;12.50;99.90
24226;DHT22;51462;51.422;5.514;2024-02-16T08:19:33;12.50;99.90
24226;DHT22;51462;51.422;5.514;2024-02-16T08:22:00;12.40;99.90
24226;DHT22;51462;51.422;5.514;2024-02-16T08:24:26;12.50;99.90
24226;DHT22;51462;51.422;5.514;2024-02-16T08:26:52;12.50;99.90
24226;DHT22;51462;51.422;5.514;2024-02-16T08:29:17;12.50;99.90
24226;DHT22;51462;51.422;5.514;2024-02-16T08:31:43;12.50;99.90
24226;DHT22;51462;51.422;5.514;2024-02-16T08:34:09;12.50;99.90
24226;DHT22;51462;51.422;5.514;2024-02-16T08:36:36;12.50;99.90
24226;DHT22;51462;51.422;5.514;2024-02-16T08:39:03;12.50;99.90
24226;DHT22;51462;51.422;5.514;2024-02-16T08:41:28;12.50;99.90
24226;DHT22;51462;51.422;5.514;2024-02-16T08:43:54;12.50;99.90
24226;DHT22;51462;51.422;5.514;2024-02-16T08:46:21;12.60;99.90
24226;DHT22;51462;51.422;5.514;2024-02-16T08:48:48;12.70;99.90
24226;DHT22;51462;51.422;5.514;2024-02-16T08:51:14;12.60;99.90
24226;DHT22;51462;51.422;5.514;2024-02-16T08:53:40;12.60;99.90
24226;DHT22;51462;51.422;5.514;2024-02-16T08:56:09;12.60;99.90
24226;DHT22;51462;51.422;5.514;2024-02-16T08:58:37;12.60;99.90
24226;DHT22;51462;51.422;5.514;2024-02-16T09:01:02;12.70;99.90
24226;DHT22;51462;51.422;5.514;2024-02-16T09:03:28;12.60;99.90
24226;DHT22;51462;51.422;5.514;2024-02-16T09:05:53;12.70;99.90
24226;DHT22;51462;51.422;5.514;2024-02-16T09:08:19;12.70;99.90
24226;DHT22;51462;51.422;5.514;2024-02-16T09:10:44;12.70;99.90
24226;DHT22;51462;51.422;5.514;2024-02-16T09:13:10;12.70;99.90
24226;DHT22;51462;51.422;5.514;2024-02-16T09:15:36;12.70;99.90
24226;DHT22;51462;51.422;5.514;2024-02-16T09:18:02;12.70;99.90
24226;DHT22;51462;51.422;5.514;2024-02-16T09:20:28;12.80;99.90
24226;DHT22;51462;51.422;5.514;2024-02-16T09:22:54;12.80;99.90
24226;DHT22;51462;51.422;5.514;2024-02-16T09:25:19;12.80;99.90
24226;DHT22;51462;51.422;5.514;2024-02-16T09:27:46;12.80;99.90
24226;DHT22;51462;51.422;5.514;2024-02-16T09:30:12;12.90;99.90
24226;DHT22;51462;51.422;5.514;2024-02-16T09:32:41;12.90;99.90
24226;DHT22;51462;51.422;5.514;2024-02-16T09:35:08;12.80;99.90
24226;DHT22;51462;51.422;5.514;2024-02-16T09:37:34;12.90;99.90
24226;DHT22;51462;51.422;5.514;2024-02-16T09:40:00;13.00;99.90
24226;DHT22;51462;51.422;5.514;2024-02-16T09:42:25;12.90;99.90
24226;DHT22;51462;51.422;5.514;2024-02-16T09:44:54;12.90;99.90
24226;DHT22;51462;51.422;5.514;2024-02-16T09:47:21;13.00;99.90
24226;DHT22;51462;51.422;5.514;2024-02-16T09:49:48;12.90;99.90
24226;DHT22;51462;51.422;5.514;2024-02-16T09:52:13;12.90;99.90
24226;DHT22;51462;51.422;5.514;2024-02-16T09:54:39;12.90;99.90
24226;DHT22;51462;51.422;5.514;2024-02-16T09:57:06;12.80;99.90
24226;DHT22;51462;51.422;5.514;2024-02-16T09:59:31;12.80;99.90
24226;DHT22;51462;51.422;5.514;2024-02-16T10:02:04;12.80;99.90
24226;DHT22;51462;51.422;5.514;2024-02-16T10:04:29;12.70;99.90
24226;DHT22;51462;51.422;5.514;2024-02-16T10:06:56;12.70;99.90
24226;DHT22;51462;51.422;5.514;2024-02-16T10:09:28;12.70;99.90
24226;DHT22;51462;51.422;5.514;2024-02-16T10:11:58;12.70;99.90
24226;DHT22;51462;51.422;5.514;2024-02-16T10:14:23;12.80;99.90
24226;DHT22;51462;51.422;5.514;2024-02-16T10:17:04;12.70;99.90
24226;DHT22;51462;51.422;5.514;2024-02-16T10:19:30;12.60;99.90
24226;DHT22;51462;51.422;5.514;2024-02-16T10:22:08;12.70;99.90
24226;DHT22;51462;51.422;5.514;2024-02-16T10:24:34;12.70;99.90
24226;DHT22;51462;51.422;5.514;2024-02-16T10:26:59;12.70;99.90
24226;DHT22;51462;51.422;5.514;2024-02-16T10:29:27;12.70;99.90
24226;DHT22;51462;51.422;5.514;2024-02-16T10:31:53;12.70;99.90
24226;DHT22;51462;51.422;5.514;2024-02-16T10:34:19;12.70;99.90
24226;DHT22;51462;51.422;5.514;2024-02-16T10:36:48;12.80;99.90
24226;DHT22;51462;51.422;5.514;2024-02-16T10:39:14;12.80;99.90
24226;DHT22;51462;51.422;5.514;2024-02-16T10:41:44;12.80;99.90
24226;DHT22;51462;51.422;5.514;2024-02-16T10:44:10;12.80;99.90
24226;DHT22;51462;51.422;5.514;2024-02-16T10:46:35;12.80;99.90
24226;DHT22;51462;51.422;5.514;2024-02-16T10:49:02;12.80;99.90
24226;DHT22;51462;51.422;5.514;2024-02-16T10:51:37;12.80;99.90
24226;DHT22;51462;51.422;5.514;2024-02-16T10:54:05;12.80;99.90
24226;DHT22;51462;51.422;5.514;2024-02-16T10:56:36;12.80;99.90
24226;DHT22;51462;51.422;5.514;2024-02-16T10:59:09;12.80;99.90
24226;DHT22;51462;51.422;5.514;2024-02-16T11:01:42;12.70;99.90
24226;DHT22;51462;51.422;5.514;2024-02-16T11:04:12;12.70;99.90
24226;DHT22;51462;51.422;5.514;2024-02-16T11:06:51;12.70;99.90
24226;DHT22;51462;51.422;5.514;2024-02-16T11:09:33;12.70;99.90
24226;DHT22;51462;51.422;5.514;2024-02-16T11:12:01;12.70;99.90
24226;DHT22;51462;51.422;5.514;2024-02-16T11:14:37;12.70;99.90
24226;DHT22;51462;51.422;5.514;2024-02-16T11:17:20;12.70;99.90
24226;DHT22;51462;51.422;5.514;2024-02-16T11:19:47;12.70;99.90
24226;DHT22;51462;51.422;5.514;2024-02-16T11:22:17;12.60;99.90
24226;DHT22;51462;51.422;5.514;2024-02-16T11:24:45;12.70;99.90
24226;DHT22;51462;51.422;5.514;2024-02-16T11:27:11;12.60;99.90
24226;DHT22;51462;51.422;5.514;2024-02-16T11:29:37;12.70;99.90
24226;DHT22;51462;51.422;5.514;2024-02-16T11:32:07;12.70;99.90
24226;DHT22;51462;51.422;5.514;2024-02-16T11:34:34;12.80;99.90
24226;DHT22;51462;51.422;5.514;2024-02-16T11:37:02;12.70;99.90
24226;DHT22;51462;51.422;5.514;2024-02-16T11:39:28;12.80;99.90
24226;DHT22;51462;51.422;5.514;2024-02-16T11:42:05;12.80;99.90
24226;DHT22;51462;51.422;5.514;2024-02-16T11:44:33;12.80;99.90
24226;DHT22;51462;51.422;5.514;2024-02-16T11:46:59;12.80;99.90
24226;DHT22;51462;51.422;5.514;2024-02-16T11:49:26;12.80;99.90
24226;DHT22;51462;51.422;5.514;2024-02-16T11:51:52;12.80;99.90
24226;DHT22;51462;51.422;5.514;2024-02-16T11:54:18;12.80;99.90
24226;DHT22;51462;51.422;5.514;2024-02-16T11:56:45;12.80;99.90
24226;DHT22;51462;51.422;5.514;2024-02-16T11:59:15;12.70;99.90
24226;DHT22;51462;51.422;5.514;2024-02-16T12:01:51;12.80;99.90
24226;DHT22;51462;51.422;5.514;2024-02-16T12:04:26;12.70;99.90
24226;DHT22;51462;51.422;5.514;2024-02-16T12:06:56;12.70;99.90
24226;DHT22;51462;51.422;5.514;2024-02-16T12:09:21;12.70;99.90
24226;DHT22;51462;51.422;5.514;2024-02-16T12:11:52;12.70;99.90
24226;DHT22;51462;51.422;5.514;2024-02-16T12:14:20;12.70;99.90
24226;DHT22;51462;51.422;5.514;2024-02-16T12:16:56;12.70;99.90
24226;DHT22;51462;51.422;5.514;2024-02-16T12:19:22;12.70;99.90
24226;DHT22;51462;51.422;5.514;2024-02-16T12:21:51;12.70;99.90
24226;DHT22;51462;51.422;5.514;2024-02-16T12:24:18;12.70;99.90
24226;DHT22;51462;51.422;5.514;2024-02-16T12:26:44;12.60;99.90
24226;DHT22;51462;51.422;5.514;2024-02-16T12:29:10;12.60;99.90
24226;DHT22;51462;51.422;5.514;2024-02-16T12:31:41;12.60;99.90
24226;DHT22;51462;51.422;5.514;2024-02-16T12:34:08;12.60;99.90
24226;DHT22;51462;51.422;5.514;2024-02-16T12:36:34;12.60;99.90
24226;DHT22;51462;51.422;5.514;2024-02-16T12:39:01;12.60;99.90
24226;DHT22;51462;51.422;5.514;2024-02-16T12:41:28;12.60;99.90
24226;DHT22;51462;51.422;5.514;2024-02-16T12:43:54;12.60;99.90
24226;DHT22;51462;51.422;5.514;2024-02-16T12:46:19;12.60;99.90
24226;DHT22;51462;51.422;5.514;2024-02-16T12:48:45;12.60;99.90
24226;DHT22;51462;51.422;5.514;2024-02-16T12:51:11;12.50;99.90
24226;DHT22;51462;51.422;5.514;2024-02-16T12:53:36;12.60;99.90
24226;DHT22;51462;51.422;5.514;2024-02-16T12:56:10;12.50;99.90
24226;DHT22;51462;51.422;5.514;2024-02-16T12:58:36;12.50;99.90
24226;DHT22;51462;51.422;5.514;2024-02-16T13:01:03;12.50;99.90
24226;DHT22;51462;51.422;5.514;2024-02-16T13:03:28;12.50;99.90
24226;DHT22;51462;51.422;5.514;2024-02-16T13:05:54;12.50;99.90
24226;DHT22;51462;51.422;5.514;2024-02-16T13:08:19;12.50;99.90
24226;DHT22;51462;51.422;5.514;2024-02-16T13:10:45;12.50;99.90
24226;DHT22;51462;51.422;5.514;2024-02-16T13:13:11;12.50;99.90
24226;DHT22;51462;51.422;5.514;2024-02-16T13:15:36;12.50;99.90
24226;DHT22;51462;51.422;5.514;2024-02-16T13:18:02;12.50;99.90
24226;DHT22;51462;51.422;5.514;2024-02-16T13:20:27;12.50;99.90
24226;DHT22;51462;51.422;5.514;2024-02-16T13:22:53;12.50;99.90
24226;DHT22;51462;51.422;5.514;2024-02-16T13:25:19;12.50;99.90
24226;DHT22;51462;51.422;5.514;2024-02-16T13:27:45;12.40;99.90
24226;DHT22;51462;51.422;5.514;2024-02-16T13:30:11;12.40;99.90
24226;DHT22;51462;51.422;5.514;2024-02-16T13:32:36;12.40;99.90
24226;DHT22;51462;51.422;5.514;2024-02-16T13:35:05;12.40;99.90
24226;DHT22;51462;51.422;5.514;2024-02-16T13:37:31;12.40;99.90
24226;DHT22;51462;51.422;5.514;2024-02-16T13:39:57;12.40;99.90
24226;DHT22;51462;51.422;5.514;2024-02-16T13:42:23;12.40;99.90
24226;DHT22;51462;51.422;5.514;2024-02-16T13:44:49;12.40;99.90
24226;DHT22;51462;51.422;5.514;2024-02-16T13:47:14;12.40;99.90
24226;DHT22;51462;51.422;5.514;2024-02-16T13:49:40;12.30;99.90
24226;DHT22;51462;51.422;5.514;2024-02-16T13:52:06;12.30;99.90
24226;DHT22;51462;51.422;5.514;2024-02-16T13:54:34;12.30;99.90
24226;DHT22;51462;51.422;5.514;2024-02-16T13:57:00;12.30;99.90
24226;DHT22;51462;51.422;5.514;2024-02-16T13:59:26;12.30;99.90
24226;DHT22;51462;51.422;5.514;2024-02-16T14:01:52;12.30;99.90
24226;DHT22;51462;51.422;5.514;2024-02-16T14:04:18;12.30;99.90
24226;DHT22;51462;51.422;5.514;2024-02-16T14:06:45;12.30;99.90
24226;DHT22;51462;51.422;5.514;2024-02-16T14:09:11;12.30;99.90
24226;DHT22;51462;51.422;5.514;2024-02-16T14:11:44;12.40;99.90
24226;DHT22;51462;51.422;5.514;2024-02-16T14:14:10;12.30;99.90
24226;DHT22;51462;51.422;5.514;2024-02-16T14:16:35;12.20;99.90
24226;DHT22;51462;51.422;5.514;2024-02-16T14:19:01;12.30;99.90
24226;DHT22;51462;51.422;5.514;2024-02-16T14:21:27;12.20;99.90
24226;DHT22;51462;51.422;5.514;2024-02-16T14:23:53;12.30;99.90
24226;DHT22;51462;51.422;5.514;2024-02-16T14:26:19;12.30;99.90
24226;DHT22;51462;51.422;5.514;2024-02-16T14:28:47;12.20;99.90
24226;DHT22;51462;51.422;5.514;2024-02-16T14:31:13;12.30;99.90
24226;DHT22;51462;51.422;5.514;2024-02-16T14:33:39;12.20;99.90
24226;DHT22;51462;51.422;5.514;2024-02-16T14:36:05;12.20;99.90
24226;DHT22;51462;51.422;5.514;2024-02-16T14:38:34;12.20;99.90
24226;DHT22;51462;51.422;5.514;2024-02-16T14:40:59;12.20;99.90
24226;DHT22;51462;51.422;5.514;2024-02-16T14:43:29;12.20;99.90
24226;DHT22;51462;51.422;5.514;2024-02-16T14:45:57;12.20;99.90
24226;DHT22;51462;51.422;5.514;2024-02-16T14:48:23;12.30;99.90
24226;DHT22;51462;51.422;5.514;2024-02-16T14:50:53;12.20;99.90
24226;DHT22;51462;51.422;5.514;2024-02-16T14:53:20;12.20;99.90
24226;DHT22;51462;51.422;5.514;2024-02-16T14:55:46;12.20;99.90
24226;DHT22;51462;51.422;5.514;2024-02-16T14:58:12;12.20;99.90
24226;DHT22;51462;51.422;5.514;2024-02-16T15:00:38;12.20;99.90
24226;DHT22;51462;51.422;5.514;2024-02-16T15:03:04;12.20;99.90
24226;DHT22;51462;51.422;5.514;2024-02-16T15:05:30;12.20;99.90
24226;DHT22;51462;51.422;5.514;2024-02-16T15:07:56;12.20;99.90
24226;DHT22;51462;51.422;5.514;2024-02-16T15:10:21;12.20;99.90
24226;DHT22;51462;51.422;5.514;2024-02-16T15:12:47;12.20;99.90
24226;DHT22;51462;51.422;5.514;2024-02-16T15:15:13;12.20;99.90
24226;DHT22;51462;51.422;5.514;2024-02-16T15:17:39;12.20;99.90
24226;DHT22;51462;51.422;5.514;2024-02-16T15:20:05;12.20;99.90
24226;DHT22;51462;51.422;5.514;2024-02-16T15:22:32;12.10;99.90
24226;DHT22;51462;51.422;5.514;2024-02-16T15:24:58;12.10;99.90
24226;DHT22;51462;51.422;5.514;2024-02-16T15:27:23;12.20;99.90